Time;durP1;ratioP1;P1;durP2;ratioP2;P2;SDS_P1;SDS_P2;PMS_P1;PMS_P2;Temp;Humidity;BMP_temperature;BMP_pressure;BME280_temperature;BME280_humidity;BME280_pressure;Samples;Min_cycle;Max_cycle;Signal;HPM_P1;HPM_P2
2023/02/21 02:13:53;;;;;;;8.70;7.90;;;;;;;8.12;77.39;99471.88;108720;1279;21997;-78
2023/02/21 02:18:10;;;;;;;;;;;;;;;;;;;;;
2023/02/21 02:22:40;;;;;;;;;;;;;;;;;;;;;
2023/02/21 02:31:24;;;;;;;8.90;8.00;;;;;;;8.17;77.49;99467.48;107672;1295;23653;-77
2023/02/21 02:34:47;;;;;;;7.80;7.10;;;;;;;8.20;77.20;99470.16;107497;1295;23814;-77
2023/02/21 02:37:29;;;;;;;7.30;6.70;;;;;;;8.24;77.44;99471.38;107652;1295;22080;-77
2023/02/21 02:40:30;;;;;;;8.00;7.20;;;;;;;8.29;77.13;99473.76;107371;1295;24337;-78
2023/02/21 02:43:00;;;;;;;7.30;6.60;;;;;;;8.30;77.08;99474.23;107437;1295;22069;-79
2023/02/21 02:45:45;;;;;;;6.60;6.10;;;;;;;8.34;76.79;99475.98;107531;1295;22483;-78
2023/02/21 02:50:06;;;;;;;;;;;;;;;;;;;;;
2023/02/21 02:52:47;;;;;;;;;;;;;;;;;;;;;
2023/02/21 02:56:35;;;;;;;;;;;;;;;;;;;;;
2023/02/21 03:00:34;;;;;;;;;;;;;;;8.39;76.69;99488.79;107972;1288;23031;-77
2023/02/21 03:07:38;;;;;;;;;;;;;;;;;;;;;
2023/02/21 03:12:07;;;;;;;;;;;;;;;;;;;;;
2023/02/21 03:15:59;;;;;;;;;;;;;;;;;;;;;
2023/02/21 03:19:11;;;;;;;8.20;7.50;;;;;;;8.30;76.54;99488.64;107994;1293;22036;-77
2023/02/21 03:26:22;;;;;;;7.80;7.20;;;;;;;8.29;76.66;99477.92;107684;1296;23090;-77
2023/02/21 03:29:27;;;;;;;;;;;;;;;;;;;;;
2023/02/21 03:32:55;;;;;;;8.00;7.30;;;;;;;8.33;76.62;99490.58;107367;1296;22026;-77
2023/02/21 03:35:29;;;;;;;8.30;7.50;;;;;;;8.33;76.54;99489.85;107083;1296;23088;-76
2023/02/21 03:37:57;;;;;;;7.20;6.50;;;;;;;8.36;76.70;99494.97;107270;1296;22017;-76
2023/02/21 03:40:33;;;;;;;9.00;8.10;;;;;;;8.35;76.56;99496.54;107606;1294;22017;-77
2023/02/21 03:43:09;;;;;;;7.80;7.20;;;;;;;8.39;76.55;99497.10;107725;1288;24197;-77
2023/02/21 03:46:35;;;;;;;;;;;;;;;;;;;;;
2023/02/21 03:50:11;;;;;;;8.30;7.50;;;;;;;8.32;76.61;99493.55;108389;1286;23771;-77
2023/02/21 03:54:06;;;;;;;;;;;;;;;;;;;;;
2023/02/21 04:00:56;;;;;;;;;;;;;;;;;;;;;
2023/02/21 04:04:50;;;;;;;;;;;;;;;;;;;;;
2023/02/21 04:23:13;;;;;;;7.20;6.60;;;;;;;10.01;71.48;99485.73;107880;1291;555923;-77
2023/02/21 04:27:40;;;;;;;;;;;;;;;;;;;;;
2023/02/21 04:31:31;;;;;;;8.80;8.00;;;;;;;8.93;73.73;99482.10;108736;1282;23049;-79
2023/02/21 04:35:26;;;;;;;;;;;;;;;;;;;;;
2023/02/21 04:43:04;;;;;;;;;;;;;;;;;;;;;
2023/02/21 04:46:17;;;;;;;;;;;;;;;;;;;;;
2023/02/21 04:49:51;;;;;;;10.30;9.00;;;;;;;8.34;75.83;99489.14;107708;1286;22006;-76
2023/02/21 04:53:19;;;;;;;;;;;;;;;;;;;;;
2023/02/21 04:56:42;;;;;;;;;;;;;;;;;;;;;
2023/02/21 05:00:06;;;;;;;10.60;9.70;;;;;;;8.27;76.39;99495.17;107997;1291;21968;-77
2023/02/21 05:04:06;;;;;;;;;;;;;;;;;;;;;
2023/02/21 05:26:00;;;;;;;7.30;6.60;;;;;;;9.59;72.20;99489.67;107819;1291;549074;-76
2023/02/21 05:30:12;;;;;;;;;;;;;;;;;;;;;
2023/02/21 05:33:18;;;;;;;;;;;;;;;;;;;;;
2023/02/21 05:36:55;;;;;;;6.80;6.10;;;;;;;8.76;73.39;99517.76;108581;1281;22704;-76
2023/02/21 05:41:09;;;;;;;;;;;;;;;;;;;;;
2023/02/21 05:44:47;;;;;;;;;;;;;;;;;;;;;
2023/02/21 06:03:39;;;;;;;;;;;;;;;;;;;;;
2023/02/21 06:18:05;;;;;;;;;;;;;;;;;;;;;
2023/02/21 06:22:25;;;;;;;;;;;;;;;;;;;;;
2023/02/21 06:27:23;;;;;;;6.60;3.60;;;;;;;9.41;68.76;99581.16;109136;1273;23037;-75
2023/02/21 06:31:54;;;;;;;;;;;;;;;;;;;;;
2023/02/21 06:35:00;;;;;;;5.70;4.60;;;;;;;9.47;70.99;99580.55;107588;1297;22016;-77
2023/02/21 06:38:41;;;;;;;4.00;2.60;;;;;;;9.46;70.61;99588.09;107724;1298;22022;-79
2023/02/21 06:42:12;;;;;;;;;;;;;;;;;;;;;
2023/02/21 06:45:24;;;;;;;3.00;2.00;;;;;;;9.35;70.73;99581.95;107164;1298;22016;-78
2023/02/21 06:49:11;;;;;;;;;;;;;;;;;;;;;
2023/02/21 06:52:32;;;;;;;1.70;0.80;;;;;;;9.52;70.60;99595.05;107380;1301;22011;-80
2023/02/21 06:55:22;;;;;;;3.20;1.30;;;;;;;9.55;69.34;99591.65;107204;1300;23761;-79
2023/02/21 06:57:50;;;;;;;2.10;1.10;;;;;;;9.50;69.03;99604.36;107151;1300;22132;-79
2023/02/21 07:00:20;;;;;;;2.90;1.10;;;;;;;9.46;68.84;99605.42;107141;1300;24559;-80
2023/02/21 07:02:50;;;;;;;2.20;1.20;;;;;;;9.46;68.98;99611.84;107926;1292;22020;-79
2023/02/21 07:05:19;;;;;;;1.70;1.10;;;;;;;9.50;68.81;99618.80;108199;1286;23712;-79
2023/02/21 07:08:05;;;;;;;3.70;1.50;;;;;;;9.53;68.71;99626.11;108581;1283;22979;-79
2023/02/21 07:10:42;;;;;;;3.20;1.90;;;;;;;9.59;68.63;99635.42;108720;1275;23708;-79
2023/02/21 07:13:11;;;;;;;2.00;1.20;;;;;;;9.64;68.25;99641.96;109140;1276;23089;-79
2023/02/21 07:15:43;;;;;;;;;;;;;;;9.67;68.13;99643.05;109167;1275;22068;-79
2023/02/21 07:19:18;;;;;;;;;;;;;;;;;;;;;
2023/02/21 07:23:30;;;;;;;;;;;;;;;;;;;;;
2023/02/21 07:28:26;;;;;;;;;;;;;;;;;;;;;
2023/02/21 07:32:21;;;;;;;1.80;1.30;;;;;;;9.48;67.82;99655.34;108949;1281;22519;-79
2023/02/21 07:39:39;;;;;;;3.00;2.10;;;;;;;9.58;67.89;99659.62;108156;1289;23746;-78
2023/02/21 07:43:27;;;;;;;;;;;;;;;;;;;;;
2023/02/21 07:47:44;;;;;;;;;;;;;;;;;;;;;
2023/02/21 07:51:18;;;;;;;6.00;3.20;;;;;;;10.17;66.23;99691.31;107199;1299;23071;-77
2023/02/21 07:55:10;;;;;;;;;;;;;;;;;;;;;
2023/02/21 07:59:08;;;;;;;;;;;;;;;;;;;;;
2023/02/21 08:02:24;;;;;;;;;;;;;;;;;;;;;
2023/02/21 08:06:16;;;;;;;11.90;3.70;;;;;;;10.30;63.86;99721.54;107184;1302;22019;-77
2023/02/21 08:09:52;;;;;;;9.60;4.60;;;;;;;10.23;62.96;99719.73;106942;1303;22024;-78
2023/02/21 08:12:58;;;;;;;;;;;;;;;;;;;;;
2023/02/21 08:34:00;;;;;;;10.30;2.90;;;;;;;10.53;51.71;99768.97;106759;1261;5632293;-79
2023/02/21 08:37:46;;;;;;;;;;;;;;;;;;;;;
2023/02/21 08:41:57;;;;;;;;;;;;;;;;;;;;;
2023/02/21 08:46:42;;;;;;;;;;;;;;;;;;;;;
2023/02/21 08:50:58;;;;;;;;;;;;;;;;;;;;;
2023/02/21 08:55:17;;;;;;;9.30;3.50;;;;;;;9.21;56.98;99774.94;110423;1265;21982;-79
2023/02/21 08:58:29;;;;;;;10.40;3.50;;;;;;;9.22;56.86;99782.54;110317;1265;23633;-79
2023/02/21 09:01:50;;;;;;;;;;;;;;;;;;;;;
2023/02/21 09:04:45;;;;;;;;;;;;;;;;;;;;;
2023/02/21 09:07:45;;;;;;;13.50;4.80;;;;;;;9.80;57.38;99781.48;110541;1254;21958;-79
2023/02/21 09:11:36;;;;;;;9.40;3.90;;;;;;;9.98;57.15;99788.36;111856;1242;21954;-79
2023/02/21 09:24:46;;;;;;;;;;;;;;;;;;;;;
2023/02/21 09:28:30;;;;;;;13.10;4.60;;;;;;;9.80;55.64;99808.55;111114;1260;21954;-79
2023/02/21 09:32:13;;;;;;;;;;;;;;;;;;;;;
2023/02/21 09:35:44;;;;;;;;;;;;;;;;;;;;;
2023/02/21 09:42:40;;;;;;;;;;;;;;;;;;;;;
2023/02/21 09:45:53;;;;;;;;;;;;;;;;;;;;;
2023/02/21 09:49:22;;;;;;;;;;;;;;;;;;;;;
2023/02/21 09:52:36;;;;;;;16.20;4.50;;;;;;;9.68;54.94;99826.29;109394;1272;23616;-77
2023/02/21 09:56:24;;;;;;;18.00;4.20;;;;;;;9.66;55.23;99825.86;108998;1273;22094;-77
2023/02/21 10:11:43;;;;;;;;;;;;;;;;;;;;;
2023/02/21 10:20:03;;;;;;;;;;;;;;;;;;;;;
2023/02/21 10:30:49;;;;;;;;;;;;;;;;;;;;;
2023/02/21 10:33:57;;;;;;;10.10;3.60;;;;;;;11.50;50.87;99864.96;107848;1294;22006;-77
2023/02/21 10:37:38;;;;;;;7.60;3.20;;;;;;;11.61;50.54;99864.10;107564;1294;22037;-77
2023/02/21 10:42:12;;;;;;;;;;;;;;;;;;;;;
2023/02/21 10:46:04;;;;;;;15.00;4.20;;;;;;;12.98;48.49;99869.49;108608;1284;21989;-79
2023/02/21 10:53:51;;;;;;;8.50;3.40;;;;;;;14.10;46.19;99874.27;108332;1287;22037;-77
2023/02/21 10:57:03;;;;;;;7.60;2.70;;;;;;;14.37;44.32;99875.47;103777;1295;22047;-77
2023/02/21 11:00:46;;;;;;;;;;;;;;;;;;;;;
2023/02/21 11:04:33;;;;;;;;;;;;;;;;;;;;;
2023/02/21 11:07:46;;;;;;;;;;;;;;;13.96;44.34;99873.71;107590;1296;22019;-78
2023/02/21 11:11:48;;;;;;;;;;;;;;;;;;;;;
2023/02/21 11:14:51;;;;;;;;;;;;;;;;;;;;;
2023/02/21 11:18:25;;;;;;;;;;;;;;;;;;;;;
2023/02/21 11:21:30;;;;;;;12.60;3.80;;;;;;;13.65;43.98;99884.78;107484;1293;21995;-80
2023/02/21 11:25:06;;;;;;;10.30;3.90;;;;;;;13.37;43.84;99889.17;107865;1294;22020;-79
2023/02/21 11:27:51;;;;;;;11.30;3.90;;;;;;;12.80;44.01;99883.23;107553;1297;22011;-79
2023/02/21 11:31:30;;;;;;;;;;;;;;;;;;;;;
2023/02/21 11:34:45;;;;;;;;;;;;;;;;;;;;;
2023/02/21 11:38:58;;;;;;;18.20;6.00;;;;;;;11.65;45.71;99893.34;108987;1277;22330;-78
2023/02/21 11:42:06;;;;;;;;;;;;;;;;;;;;;
2023/02/21 11:45:15;;;;;;;11.30;3.70;;;;;;;11.07;46.72;99883.77;108324;1283;22043;-77
2023/02/21 11:48:59;;;;;;;;;;;;;;;;;;;;;
2023/02/21 11:52:50;;;;;;;;;;;;;;;;;;;;;
2023/02/21 11:58:57;;;;;;;15.40;5.10;;;;;;;9.99;48.62;99895.50;108824;1283;22000;-78
2023/02/21 12:02:26;;;;;;;13.20;4.30;;;;;;;9.98;49.16;99896.63;108625;1281;23090;-78
2023/02/21 12:06:21;;;;;;;11.90;4.10;;;;;;;9.98;49.43;99897.30;108704;1281;22048;-79
2023/02/21 12:10:00;;;;;;;10.90;3.40;;;;;;;9.98;49.48;99899.58;108764;1281;22081;-78
2023/02/21 12:13:31;;;;;;;12.20;3.40;;;;;;;9.90;49.49;99896.41;108628;1284;22005;-78
2023/02/21 12:17:04;;;;;;;12.60;5.40;;;;;;;9.82;49.54;99899.70;108312;1287;22002;-78
2023/02/21 12:20:42;;;;;;;14.60;4.40;;;;;;;9.79;49.93;99897.59;108839;1280;23149;-80
2023/02/21 12:24:11;;;;;;;;;;;;;;;;;;;;;
2023/02/21 12:27:52;;;;;;;13.00;4.70;;;;;;;9.80;50.17;99903.27;108018;1290;22182;-78
2023/02/21 12:31:31;;;;;;;15.20;5.10;;;;;;;9.69;50.26;99906.87;108713;1281;24484;-78
2023/02/21 12:35:36;;;;;;;;;;;;;;;;;;;;;
2023/02/21 12:39:31;;;;;;;;;;;;;;;;;;;;;
2023/02/21 12:43:13;;;;;;;;;;;;;;;;;;;;;
2023/02/21 12:46:47;;;;;;;12.20;4.00;;;;;;;9.51;50.48;99918.35;106814;1297;23033;-78
2023/02/21 12:50:11;;;;;;;16.60;4.20;;;;;;;9.54;50.69;99914.92;107283;1297;23128;-77
2023/02/21 12:53:43;;;;;;;12.40;4.30;;;;;;;9.58;50.38;99916.52;107627;1292;22045;-78
2023/02/21 12:56:56;;;;;;;13.90;4.20;;;;;;;9.54;50.10;99912.34;107399;1296;22668;-77
2023/02/21 13:00:11;;;;;;;13.00;5.50;;;;;;;9.48;50.11;99912.76;107729;1291;22050;-80
2023/02/21 13:04:02;;;;;;;12.10;4.30;;;;;;;9.48;50.14;99909.28;108339;1284;21990;-80
2023/02/21 13:06:46;;;;;;;;;;;;;;;9.56;50.23;99919.04;108818;1284;21959;-78
2023/02/21 13:09:56;;;;;;;15.00;4.30;;;;;;;9.56;50.23;99922.13;109105;1277;22928;-78
2023/02/21 13:13:02;;;;;;;19.40;4.70;;;;;;;9.62;50.42;99927.81;110785;1262;21977;-81
2023/02/21 13:19:31;;;;;;;17.00;4.70;;;;;;;9.70;50.28;99930.77;109920;1268;21992;-80
2023/02/21 13:27:21;;;;;;;13.70;4.80;;;;;;;9.50;50.75;99929.32;111102;1259;22048;-78
2023/02/21 13:30:46;;;;;;;12.60;4.90;;;;;;;9.47;51.01;99932.93;110293;1268;22008;-78
2023/02/21 13:33:57;;;;;;;17.80;5.40;;;;;;;9.49;51.16;99939.63;109680;1263;21996;-80
2023/02/21 13:37:53;;;;;;;16.30;5.10;;;;;;;9.45;51.33;99938.77;110474;1264;22008;-79
2023/02/21 13:42:05;;;;;;;;;;;;;;;;;;;;;
2023/02/21 13:45:43;;;;;;;16.60;5.80;;;;;;;9.39;51.63;99938.98;109994;1267;22963;-78
2023/02/21 13:49:41;;;;;;;19.10;5.40;;;;;;;9.41;51.87;99941.00;109912;1264;22718;-77
2023/02/21 13:52:23;;;;;;;10.20;4.80;;;;;;;9.50;52.06;99939.97;110421;1267;21993;-83
2023/02/21 13:56:03;;;;;;;16.90;5.60;;;;;;;9.51;51.87;99942.83;109239;1277;21994;-83
2023/02/21 14:00:09;;;;;;;;;;;;;;;;;;;;;
2023/02/21 14:08:10;;;;;;;15.20;5.00;;;;;;;9.38;51.33;99962.99;108973;1277;22049;-79
2023/02/21 14:12:03;;;;;;;;;;;;;;;;;;;;;
2023/02/21 14:15:36;;;;;;;;;;;;;;;;;;;;;
2023/02/21 14:19:28;;;;;;;;;;;;;;;9.18;51.30;99971.73;108425;1286;22034;-78
2023/02/21 14:22:53;;;;;;;15.10;4.60;;;;;;;9.15;51.42;99976.18;108251;1289;22262;-77
2023/02/21 14:29:40;;;;;;;21.90;5.60;;;;;;;9.10;50.90;99988.02;108241;1287;22067;-78
2023/02/21 14:32:27;;;;;;;15.90;6.10;;;;;;;9.06;51.02;99996.30;108096;1284;22012;-78
2023/02/21 14:36:45;;;;;;;18.90;6.40;;;;;;;9.00;51.32;100000.00;108397;1284;22011;-77
2023/02/21 14:39:53;;;;;;;17.80;6.60;;;;;;;8.88;51.36;99999.25;108522;1284;21999;-77
2023/02/21 14:43:38;;;;;;;18.30;7.30;;;;;;;8.82;51.71;100001.38;108517;1277;22871;-77
2023/02/21 14:47:26;;;;;;;22.30;6.50;;;;;;;8.76;51.81;100009.20;108629;1277;22019;-77
2023/02/21 14:51:49;;;;;;;;;;;;;;;;;;;;;
2023/02/21 14:56:16;;;;;;;21.60;7.30;;;;;;;8.53;51.94;100021.45;109812;1267;23116;-78
2023/02/21 15:00:29;;;;;;;21.80;7.80;;;;;;;8.42;52.30;100029.79;109579;1273;22352;-79
2023/02/21 15:03:27;;;;;;;21.20;7.60;;;;;;;8.36;52.61;100029.82;109633;1269;23605;-80
2023/02/21 15:08:04;;;;;;;;;;;;;;;;;;;;;
2023/02/21 15:11:37;;;;;;;;;;;;;;;;;;;;;
2023/02/21 15:19:06;;;;;;;24.00;7.80;;;;;;;8.13;53.99;100043.91;107244;1299;22019;-78
2023/02/21 15:22:35;;;;;;;;;;;;;;;;;;;;;
2023/02/21 15:25:39;;;;;;;16.30;7.10;;;;;;;8.18;54.37;100050.17;106890;1302;22040;-79
2023/02/21 15:29:03;;;;;;;23.20;7.90;;;;;;;8.19;54.35;100053.26;106783;1302;24379;-79
2023/02/21 15:36:50;;;;;;;;;;;;;;;;;;;;;
2023/02/21 15:40:50;;;;;;;20.20;7.40;;;;;;;8.20;54.59;100056.02;109276;1276;21996;-81
2023/02/21 15:44:57;;;;;;;22.90;7.70;;;;;;;8.13;54.63;100063.34;108751;1285;22012;-79
2023/02/21 15:49:34;;;;;;;25.00;8.30;;;;;;;8.08;54.66;100064.02;105087;1283;22072;-78
2023/02/21 15:52:37;;;;;;;23.00;7.00;;;;;;;8.05;54.80;100067.59;108613;1287;22027;-81
2023/02/21 15:55:43;;;;;;;;;;;;;;;;;;;;;
2023/02/21 15:59:22;;;;;;;17.40;6.30;;;;;;;7.96;54.74;100067.01;108357;1287;23637;-81
2023/02/21 16:02:18;;;;;;;16.00;5.40;;;;;;;7.89;54.90;100071.21;108382;1287;23043;-78
2023/02/21 16:05:02;;;;;;;22.40;6.90;;;;;;;7.85;54.88;100069.77;108334;1286;23072;-78
2023/02/21 16:07:52;;;;;;;;;;;;;;;;;;;;;
2023/02/21 16:10:30;;;;;;;28.20;6.90;;;;;;;7.86;55.03;100077.88;108596;1281;23738;-77
2023/02/21 16:24:37;;;;;;;22.10;7.20;;;;;;;9.01;52.00;100083.70;108309;1285;548549;-78
2023/02/21 16:27:59;;;;;;;18.20;6.00;;;;;;;8.95;51.24;100095.13;105896;1277;4072731;-78
2023/02/21 16:30:34;;;;;;;18.80;7.20;;;;;;;8.56;52.18;100094.55;109117;1277;22771;-78
2023/02/21 16:33:38;;;;;;;21.50;6.90;;;;;;;8.37;52.87;100100.88;110264;1265;23691;-77
2023/02/21 16:37:38;;;;;;;;;;;;;;;;;;;;;
2023/02/21 16:41:10;;;;;;;20.30;6.70;;;;;;;8.09;54.02;100105.77;110325;1266;21982;-77
2023/02/21 16:44:43;;;;;;;21.40;7.40;;;;;;;7.99;54.40;100109.88;110126;1262;21973;-77
2023/02/21 16:47:39;;;;;;;17.10;6.90;;;;;;;7.91;54.65;100117.41;110644;1262;21977;-77
2023/02/21 16:50:36;;;;;;;18.60;6.10;;;;;;;7.88;54.81;100126.34;110311;1259;22039;-81
2023/02/21 16:53:54;;;;;;;21.90;7.60;;;;;;;7.86;54.99;100133.14;110012;1265;24365;-76
2023/02/21 16:56:59;;;;;;;21.40;6.00;;;;;;;7.86;55.23;100136.08;109823;1268;22469;-78
2023/02/21 17:00:34;;;;;;;22.50;7.90;;;;;;;7.81;55.29;100140.89;108875;1279;23064;-78
2023/02/21 17:04:00;;;;;;;;;;;;;;;;;;;;;
2023/02/21 17:07:19;;;;;;;23.10;7.50;;;;;;;7.75;55.73;100144.73;108556;1286;22057;-78
2023/02/21 17:10:35;;;;;;;17.60;7.00;;;;;;;7.78;55.86;100144.98;108419;1286;21998;-79
2023/02/21 17:17:10;;;;;;;20.20;7.20;;;;;;;7.80;56.09;100157.73;107208;1298;22018;-78
2023/02/21 17:31:20;;;;;;;23.40;8.90;;;;;;;9.05;53.37;100165.25;108070;1288;548046;-78
2023/02/21 17:34:19;;;;;;;24.50;9.80;;;;;;;9.24;52.34;100173.80;105767;1275;4247668;-78
2023/02/21 17:38:13;;;;;;;;;;;;;;;;;;;;;
2023/02/21 17:42:05;;;;;;;;;;;;;;;;;;;;;
2023/02/21 17:45:04;;;;;;;26.10;8.00;;;;;;;8.21;54.78;100183.55;109314;1273;22871;-79
2023/02/21 17:48:01;;;;;;;30.90;10.60;;;;;;;8.11;55.15;100184.39;109194;1272;22743;-78
2023/02/21 17:51:00;;;;;;;24.40;9.40;;;;;;;8.05;55.28;100184.55;109360;1272;21985;-78
2023/02/21 17:54:24;;;;;;;26.20;10.00;;;;;;;7.96;55.49;100188.61;109070;1275;21984;-79
2023/02/21 17:57:34;;;;;;;28.20;8.40;;;;;;;7.88;55.69;100188.69;109149;1275;23640;-77
2023/02/21 18:00:38;;;;;;;28.70;10.70;;;;;;;7.81;55.93;100191.14;109226;1272;22741;-77
2023/02/21 18:03:17;;;;;;;22.60;8.50;;;;;;;7.77;56.05;100196.46;109397;1272;23615;-77
2023/02/21 18:06:06;;;;;;;24.40;9.50;;;;;;;7.75;56.09;100198.25;109362;1268;21974;-76
2023/02/21 18:09:11;;;;;;;21.80;8.30;;;;;;;7.72;56.37;100198.17;110106;1265;23745;-76
2023/02/21 18:12:14;;;;;;;23.50;8.10;;;;;;;7.69;56.59;100196.33;110600;1259;22018;-78
2023/02/21 18:15:06;;;;;;;25.70;9.30;;;;;;;7.67;56.68;100200.20;110408;1265;21974;-76
2023/02/21 18:17:50;;;;;;;20.60;8.90;;;;;;;7.62;56.89;100202.23;110178;1265;22346;-77
2023/02/21 18:20:42;;;;;;;32.10;9.70;;;;;;;7.58;57.02;100205.13;110547;1262;22608;-76
2023/02/21 18:23:46;;;;;;;30.50;10.00;;;;;;;7.54;57.15;100201.95;110185;1259;21966;-76
2023/02/21 18:26:43;;;;;;;34.20;10.60;;;;;;;7.49;57.32;100205.89;110311;1264;21978;-77
2023/02/21 18:29:41;;;;;;;24.20;9.90;;;;;;;7.42;57.37;100212.67;109989;1256;22183;-76
2023/02/21 18:32:52;;;;;;;27.90;9.90;;;;;;;7.35;57.46;100213.89;110078;1262;23708;-76
2023/02/21 18:36:30;;;;;;;28.20;11.70;;;;;;;7.24;57.73;100212.95;110600;1257;22028;-76
2023/02/21 18:39:58;;;;;;;26.20;11.50;;;;;;;7.22;57.85;100220.80;109731;1270;21981;-76
2023/02/21 18:43:00;;;;;;;23.60;9.80;;;;;;;7.22;57.93;100224.10;109422;1270;23870;-76
2023/02/21 18:46:03;;;;;;;28.60;9.70;;;;;;;7.24;58.05;100227.35;109478;1270;23616;-78
2023/02/21 18:49:03;;;;;;;23.50;9.50;;;;;;;7.24;58.07;100229.27;109056;1276;23808;-79
2023/02/21 18:52:00;;;;;;;27.00;10.60;;;;;;;7.23;58.24;100228.24;109142;1276;21988;-79
2023/02/21 18:55:01;;;;;;;23.00;9.10;;;;;;;7.22;58.30;100229.82;108902;1276;23362;-77
2023/02/21 18:58:19;;;;;;;29.80;9.90;;;;;;;7.19;58.54;100231.09;109437;1271;23638;-81
2023/02/21 19:01:31;;;;;;;;;;;;;;;;;;;;;
2023/02/21 19:04:48;;;;;;;;;;;;;;;;;;;;;
2023/02/21 19:08:26;;;;;;;27.00;10.50;;;;;;;6.95;58.81;100236.20;108822;1279;23030;-78
2023/02/21 19:12:24;;;;;;;26.90;9.60;;;;;;;6.87;59.08;100242.82;108893;1279;23074;-78
2023/02/21 19:16:25;;;;;;;26.20;10.70;;;;;;;6.78;59.20;100243.37;108444;1281;23052;-78
2023/02/21 19:20:38;;;;;;;;;;;;;;;;;;;;;
2023/02/21 19:23:47;;;;;;;30.10;13.40;;;;;;;6.66;59.83;100247.98;108230;1293;23068;-81
2023/02/21 19:26:32;;;;;;;38.70;12.30;;;;;;;6.65;59.87;100250.23;107941;1291;22117;-78
2023/02/21 19:30:22;;;;;;;;;;;;;;;;;;;;;
2023/02/21 19:33:27;;;;;;;;;;;;;;;;;;;;;
2023/02/21 19:37:15;;;;;;;35.10;15.00;;;;;;;6.55;60.44;100256.34;108972;1280;22484;-84
2023/02/21 19:40:27;;;;;;;31.30;12.80;;;;;;;6.49;60.58;100255.45;108585;1290;22110;-78
2023/02/21 19:44:25;;;;;;;;;;;;;;;;;;;;;
2023/02/21 19:48:03;;;;;;;24.90;11.70;;;;;;;6.42;60.85;100262.18;107569;1297;23011;-78
2023/02/21 19:56:24;;;;;;;;;;;;;;;;;;;;;
2023/02/21 19:59:10;;;;;;;;;;;;;;;;;;;;;
2023/02/21 20:02:50;;;;;;;;;;;;;;;;;;;;;
2023/02/21 20:06:37;;;;;;;;;;;;;;;;;;;;;
2023/02/21 20:09:45;;;;;;;29.60;11.00;;;;;;;6.37;61.45;100281.83;107079;1300;23017;-80
2023/02/21 20:12:27;;;;;;;25.90;11.70;;;;;;;6.37;61.47;100281.64;107448;1294;22026;-81
2023/02/21 20:16:14;;;;;;;38.80;13.50;;;;;;;6.36;61.66;100287.71;107900;1294;22046;-81
2023/02/21 20:19:28;;;;;;;;;;;;;;;;;;;;;
2023/02/21 20:22:57;;;;;;;;;;;;;;;;;;;;;
2023/02/21 20:26:47;;;;;;;;;;;;;;;;;;;;;
2023/02/21 20:30:42;;;;;;;37.10;12.50;;;;;;;6.17;62.01;100300.55;108744;1284;22014;-81
2023/02/21 20:38:29;;;;;;;30.30;12.30;;;;;;;6.05;62.44;100306.31;107560;1296;22015;-82
2023/02/21 20:41:03;;;;;;;;;;;;;;;;;;;;;
2023/02/21 20:44:55;;;;;;;36.00;16.40;;;;;;;5.96;62.48;100311.33;108077;1293;23161;-81
2023/02/21 20:48:12;;;;;;;;;;;;;;;;;;;;;
2023/02/21 21:08:28;;;;;;;37.70;16.90;;;;;;;7.40;58.63;100324.21;107394;1262;5003262;-79
2023/02/21 21:11:59;;;;;;;35.00;16.00;;;;;;;6.86;59.83;100326.72;112216;1245;24289;-75
2023/02/21 21:15:17;;;;;;;32.30;15.40;;;;;;;6.50;60.69;100324.58;111654;1250;21969;-75
2023/02/21 21:18:40;;;;;;;;;;;;;;;;;;;;;
2023/02/21 21:21:53;;;;;;;41.50;16.10;;;;;;;6.18;61.51;100333.70;111430;1250;22009;-76
2023/02/21 21:25:37;;;;;;;39.90;16.40;;;;;;;6.01;62.00;100338.52;111943;1248;23715;-77
2023/02/21 21:29:22;;;;;;;40.00;16.50;;;;;;;5.89;62.25;100341.67;111167;1254;21973;-76
2023/02/21 21:32:54;;;;;;;39.40;15.60;;;;;;;5.80;62.55;100343.02;111223;1254;23677;-78
2023/02/21 21:36:49;;;;;;;41.00;15.90;;;;;;;5.68;62.98;100345.14;109133;1276;23058;-77
2023/02/21 21:40:27;;;;;;;33.60;15.50;;;;;;;5.62;63.24;100347.16;108929;1276;23043;-78
2023/02/21 21:46:21;;;;;;;36.10;13.70;;;;;;;5.56;63.86;100355.71;108733;1280;23744;-78
2023/02/21 21:52:27;;;;;;;41.10;15.60;;;;;;;5.58;63.99;100360.69;108596;1279;22021;-78
2023/02/21 21:55:47;;;;;;;33.10;13.80;;;;;;;5.62;64.37;100368.21;108613;1279;22496;-78
2023/02/21 21:58:19;;;;;;;36.80;14.50;;;;;;;5.64;64.53;100366.27;108559;1279;22000;-80
2023/02/21 22:01:30;;;;;;;;;;;;;;;;;;;;;
2023/02/21 22:04:39;;;;;;;;;;;;;;;;;;;;;
2023/02/21 22:07:19;;;;;;;35.40;13.40;;;;;;;5.77;64.53;100364.51;108915;1274;24961;-77
2023/02/21 22:10:05;;;;;;;39.90;13.80;;;;;;;5.82;64.54;100362.86;109072;1275;23145;-77
2023/02/21 22:13:13;;;;;;;27.20;11.50;;;;;;;5.86;64.50;100366.08;109115;1271;22969;-77
2023/02/21 22:16:09;;;;;;;31.60;12.10;;;;;;;5.89;64.55;100363.93;108940;1275;21994;-77
2023/02/21 22:19:03;;;;;;;38.80;13.60;;;;;;;5.92;64.55;100363.02;109116;1270;22486;-75
2023/02/21 22:22:04;;;;;;;;;;;;;;;;;;;;;
2023/02/21 22:25:22;;;;;;;;;;;;;;;;;;;;;
2023/02/21 22:28:14;;;;;;;28.00;11.90;;;;;;;5.97;64.45;100370.05;109966;1267;21996;-76
2023/02/21 22:31:11;;;;;;;28.70;11.30;;;;;;;5.99;64.62;100373.11;110714;1259;23720;-76
2023/02/21 22:38:07;;;;;;;31.70;13.20;;;;;;;6.06;64.62;100376.27;110130;1264;23758;-77
2023/02/21 22:40:58;;;;;;;33.70;12.10;;;;;;;6.09;64.58;100376.02;110327;1264;23037;-79
2023/02/21 22:44:35;;;;;;;;;;;;;;;;;;;;;
2023/02/21 22:47:19;;;;;;;37.90;14.70;;;;;;;6.17;64.56;100379.36;110394;1264;23607;-76
2023/02/21 22:50:28;;;;;;;44.20;14.30;;;;;;;6.18;64.35;100379.84;110597;1259;21980;-77
2023/02/21 22:54:19;;;;;;;38.40;14.00;;;;;;;6.16;64.46;100380.05;111059;1255;21989;-76
2023/02/21 22:57:17;;;;;;;;;;;;;;;;;;;;;
2023/02/21 22:59:49;;;;;;;33.20;14.40;;;;;;;6.16;64.40;100382.65;111612;1249;21957;-76
2023/02/21 23:02:39;;;;;;;38.90;15.30;;;;;;;6.16;64.33;100388.87;111808;1249;22723;-76
2023/02/21 23:05:38;;;;;;;42.90;18.90;;;;;;;6.17;64.28;100395.24;111856;1249;22174;-76
2023/02/21 23:08:42;;;;;;;;;;;;;;;;;;;;;
2023/02/21 23:12:12;;;;;;;39.80;14.50;;;;;;;6.19;64.46;100397.79;112137;1244;23580;-76
2023/02/21 23:16:09;;;;;;;36.60;14.70;;;;;;;6.21;64.45;100397.92;112101;1236;23034;-76
2023/02/21 23:19:06;;;;;;;30.20;13.50;;;;;;;6.23;64.47;100401.70;112265;1244;24495;-76
2023/02/21 23:22:13;;;;;;;42.20;18.80;;;;;;;6.25;64.31;100405.80;111359;1252;23044;-75
2023/02/21 23:25:33;;;;;;;43.20;20.10;;;;;;;6.26;64.30;100407.51;111353;1252;21960;-75
2023/02/21 23:28:37;;;;;;;45.50;23.00;;;;;;;6.25;64.47;100408.55;111410;1252;23607;-76
2023/02/21 23:32:07;;;;;;;34.50;16.30;;;;;;;6.27;64.35;100407.83;111713;1246;21951;-76
2023/02/21 23:35:16;;;;;;;;;;;;;;;;;;;;;
2023/02/21 23:38:07;;;;;;;31.30;15.40;;;;;;;6.25;64.28;100407.02;111610;1250;22252;-75
2023/02/21 23:41:11;;;;;;;31.80;14.90;;;;;;;6.23;64.12;100402.05;112136;1242;21936;-75
2023/02/21 23:44:17;;;;;;;45.80;18.50;;;;;;;6.12;64.19;100402.23;112256;1242;23588;-75
2023/02/21 23:47:05;;;;;;;36.30;17.20;;;;;;;6.06;64.22;100405.48;112259;1242;24328;-76
2023/02/21 23:50:16;;;;;;;36.10;17.20;;;;;;;5.98;64.20;100408.20;112425;1242;21951;-76
2023/02/21 23:53:28;;;;;;;35.80;17.20;;;;;;;5.90;64.23;100410.21;112635;1238;22575;-77
2023/02/21 23:56:38;;;;;;;42.40;19.00;;;;;;;5.78;64.28;100406.95;112280;1244;21982;-76
2023/02/21 23:59:37;;;;;;;36.10;17.70;;;;;;;5.68;64.39;100407.48;111852;1244;23037;-76
